sensor_id;sensor_type;location;lat;lon;timestamp;P1;durP1;ratioP1;P2;durP2;ratioP2
19285;SDS011;9776;50.798;6.430;2024-01-16T00:00:16;7.30;;;3.50;;
19285;SDS011;9776;50.798;6.430;2024-01-16T00:02:43;6.67;;;3.30;;
19285;SDS011;9776;50.798;6.430;2024-01-16T00:05:10;10.00;;;4.10;;
19285;SDS011;9776;50.798;6.430;2024-01-16T00:07:39;7.77;;;3.37;;
19285;SDS011;9776;50.798;6.430;2024-01-16T00:10:07;7.60;;;3.87;;
19285;SDS011;9776;50.798;6.430;2024-01-16T00:12:34;7.00;;;3.70;;
19285;SDS011;9776;50.798;6.430;2024-01-16T00:15:00;7.53;;;3.77;;
19285;SDS011;9776;50.798;6.430;2024-01-16T00:17:27;7.90;;;4.03;;
19285;SDS011;9776;50.798;6.430;2024-01-16T00:19:53;8.90;;;3.90;;
19285;SDS011;9776;50.798;6.430;2024-01-16T00:22:19;9.07;;;3.97;;
19285;SDS011;9776;50.798;6.430;2024-01-16T00:24:47;12.50;;;4.23;;
19285;SDS011;9776;50.798;6.430;2024-01-16T00:27:14;8.47;;;3.77;;
19285;SDS011;9776;50.798;6.430;2024-01-16T00:29:41;7.40;;;3.50;;
19285;SDS011;9776;50.798;6.430;2024-01-16T00:32:07;6.40;;;3.70;;
19285;SDS011;9776;50.798;6.430;2024-01-16T00:34:34;8.77;;;3.93;;
19285;SDS011;9776;50.798;6.430;2024-01-16T00:37:01;6.87;;;3.70;;
19285;SDS011;9776;50.798;6.430;2024-01-16T00:39:27;9.07;;;4.10;;
19285;SDS011;9776;50.798;6.430;2024-01-16T00:41:55;6.97;;;3.60;;
19285;SDS011;9776;50.798;6.430;2024-01-16T00:44:22;10.90;;;5.07;;
19285;SDS011;9776;50.798;6.430;2024-01-16T00:46:50;15.10;;;6.57;;
19285;SDS011;9776;50.798;6.430;2024-01-16T00:49:17;12.40;;;5.33;;
19285;SDS011;9776;50.798;6.430;2024-01-16T00:51:44;24.30;;;8.90;;
19285;SDS011;9776;50.798;6.430;2024-01-16T00:54:11;11.37;;;5.10;;
19285;SDS011;9776;50.798;6.430;2024-01-16T00:56:38;11.10;;;4.63;;
19285;SDS011;9776;50.798;6.430;2024-01-16T00:59:06;20.80;;;7.50;;
19285;SDS011;9776;50.798;6.430;2024-01-16T01:01:32;11.33;;;4.90;;
19285;SDS011;9776;50.798;6.430;2024-01-16T01:03:59;9.73;;;5.57;;
19285;SDS011;9776;50.798;6.430;2024-01-16T01:06:25;9.70;;;4.70;;
19285;SDS011;9776;50.798;6.430;2024-01-16T01:08:52;7.37;;;5.03;;
19285;SDS011;9776;50.798;6.430;2024-01-16T01:11:19;9.90;;;4.50;;
19285;SDS011;9776;50.798;6.430;2024-01-16T01:13:45;6.80;;;3.93;;
19285;SDS011;9776;50.798;6.430;2024-01-16T01:16:13;9.77;;;4.50;;
19285;SDS011;9776;50.798;6.430;2024-01-16T01:18:40;11.20;;;4.07;;
19285;SDS011;9776;50.798;6.430;2024-01-16T01:21:07;9.13;;;4.13;;
19285;SDS011;9776;50.798;6.430;2024-01-16T01:23:34;14.60;;;4.30;;
19285;SDS011;9776;50.798;6.430;2024-01-16T01:26:00;7.70;;;3.80;;
19285;SDS011;9776;50.798;6.430;2024-01-16T01:28:28;10.13;;;4.10;;
19285;SDS011;9776;50.798;6.430;2024-01-16T01:30:55;7.00;;;4.03;;
19285;SDS011;9776;50.798;6.430;2024-01-16T01:33:23;6.60;;;3.77;;
19285;SDS011;9776;50.798;6.430;2024-01-16T01:35:50;11.73;;;3.83;;
19285;SDS011;9776;50.798;6.430;2024-01-16T01:38:16;6.53;;;3.80;;
19285;SDS011;9776;50.798;6.430;2024-01-16T01:40:44;7.73;;;3.60;;
19285;SDS011;9776;50.798;6.430;2024-01-16T01:43:17;6.00;;;3.37;;
19285;SDS011;9776;50.798;6.430;2024-01-16T01:45:45;7.27;;;3.67;;
19285;SDS011;9776;50.798;6.430;2024-01-16T01:48:14;9.13;;;3.90;;
19285;SDS011;9776;50.798;6.430;2024-01-16T01:50:42;9.20;;;3.80;;
19285;SDS011;9776;50.798;6.430;2024-01-16T01:53:09;7.40;;;3.90;;
19285;SDS011;9776;50.798;6.430;2024-01-16T01:55:35;7.27;;;3.60;;
19285;SDS011;9776;50.798;6.430;2024-01-16T01:58:02;8.17;;;3.70;;
19285;SDS011;9776;50.798;6.430;2024-01-16T02:00:29;9.33;;;3.87;;
19285;SDS011;9776;50.798;6.430;2024-01-16T02:02:56;7.13;;;3.80;;
19285;SDS011;9776;50.798;6.430;2024-01-16T02:05:23;12.20;;;4.60;;
19285;SDS011;9776;50.798;6.430;2024-01-16T02:07:52;7.00;;;3.20;;
19285;SDS011;9776;50.798;6.430;2024-01-16T02:10:19;8.00;;;4.07;;
19285;SDS011;9776;50.798;6.430;2024-01-16T02:12:45;8.03;;;3.70;;
19285;SDS011;9776;50.798;6.430;2024-01-16T02:15:12;7.07;;;3.90;;
19285;SDS011;9776;50.798;6.430;2024-01-16T02:17:39;9.83;;;3.70;;
19285;SDS011;9776;50.798;6.430;2024-01-16T02:20:06;10.63;;;3.97;;
19285;SDS011;9776;50.798;6.430;2024-01-16T02:22:34;5.87;;;3.47;;
19285;SDS011;9776;50.798;6.430;2024-01-16T02:25:04;10.27;;;4.20;;
19285;SDS011;9776;50.798;6.430;2024-01-16T02:27:32;9.80;;;3.87;;
19285;SDS011;9776;50.798;6.430;2024-01-16T02:29:58;11.03;;;3.90;;
19285;SDS011;9776;50.798;6.430;2024-01-16T02:32:25;7.30;;;3.80;;
19285;SDS011;9776;50.798;6.430;2024-01-16T02:34:52;7.73;;;4.00;;
19285;SDS011;9776;50.798;6.430;2024-01-16T02:37:19;10.53;;;3.90;;
19285;SDS011;9776;50.798;6.430;2024-01-16T02:39:46;7.43;;;3.70;;
19285;SDS011;9776;50.798;6.430;2024-01-16T02:42:14;8.90;;;3.83;;
19285;SDS011;9776;50.798;6.430;2024-01-16T02:44:41;9.47;;;4.17;;
19285;SDS011;9776;50.798;6.430;2024-01-16T02:47:07;6.60;;;3.47;;
19285;SDS011;9776;50.798;6.430;2024-01-16T02:49:34;8.90;;;4.50;;
19285;SDS011;9776;50.798;6.430;2024-01-16T02:52:02;11.90;;;3.87;;
19285;SDS011;9776;50.798;6.430;2024-01-16T02:54:29;8.07;;;4.00;;
19285;SDS011;9776;50.798;6.430;2024-01-16T02:56:56;8.87;;;4.33;;
19285;SDS011;9776;50.798;6.430;2024-01-16T02:59:24;8.30;;;4.10;;
19285;SDS011;9776;50.798;6.430;2024-01-16T03:01:53;6.93;;;4.10;;
19285;SDS011;9776;50.798;6.430;2024-01-16T03:04:19;8.93;;;3.80;;
19285;SDS011;9776;50.798;6.430;2024-01-16T03:06:46;8.67;;;4.17;;
19285;SDS011;9776;50.798;6.430;2024-01-16T03:09:12;11.10;;;4.77;;
19285;SDS011;9776;50.798;6.430;2024-01-16T03:11:39;9.30;;;4.10;;
19285;SDS011;9776;50.798;6.430;2024-01-16T03:14:06;11.47;;;4.00;;
19285;SDS011;9776;50.798;6.430;2024-01-16T03:16:34;9.67;;;4.50;;
19285;SDS011;9776;50.798;6.430;2024-01-16T03:19:01;7.73;;;4.30;;
19285;SDS011;9776;50.798;6.430;2024-01-16T03:21:27;11.60;;;5.30;;
19285;SDS011;9776;50.798;6.430;2024-01-16T03:23:54;8.07;;;4.70;;
19285;SDS011;9776;50.798;6.430;2024-01-16T03:26:21;14.47;;;5.07;;
19285;SDS011;9776;50.798;6.430;2024-01-16T03:28:48;12.43;;;5.47;;
19285;SDS011;9776;50.798;6.430;2024-01-16T03:31:14;13.37;;;6.33;;
19285;SDS011;9776;50.798;6.430;2024-01-16T03:33:42;10.47;;;5.43;;
19285;SDS011;9776;50.798;6.430;2024-01-16T03:36:09;9.90;;;4.77;;
19285;SDS011;9776;50.798;6.430;2024-01-16T03:38:37;9.33;;;5.20;;
19285;SDS011;9776;50.798;6.430;2024-01-16T03:41:04;12.13;;;5.17;;
19285;SDS011;9776;50.798;6.430;2024-01-16T03:43:32;9.17;;;4.93;;
19285;SDS011;9776;50.798;6.430;2024-01-16T03:45:59;14.83;;;5.77;;
19285;SDS011;9776;50.798;6.430;2024-01-16T03:48:26;9.83;;;5.07;;
19285;SDS011;9776;50.798;6.430;2024-01-16T03:50:54;10.33;;;4.90;;
19285;SDS011;9776;50.798;6.430;2024-01-16T03:53:20;8.67;;;5.00;;
19285;SDS011;9776;50.798;6.430;2024-01-16T03:55:47;9.20;;;4.53;;
19285;SDS011;9776;50.798;6.430;2024-01-16T03:58:15;8.60;;;4.47;;
19285;SDS011;9776;50.798;6.430;2024-01-16T04:00:42;10.50;;;4.30;;
19285;SDS011;9776;50.798;6.430;2024-01-16T04:03:09;7.63;;;3.77;;
19285;SDS011;9776;50.798;6.430;2024-01-16T04:05:36;9.30;;;4.97;;
19285;SDS011;9776;50.798;6.430;2024-01-16T04:08:04;7.87;;;4.57;;
19285;SDS011;9776;50.798;6.430;2024-01-16T04:10:31;9.73;;;4.70;;
19285;SDS011;9776;50.798;6.430;2024-01-16T04:12:59;10.93;;;4.80;;
19285;SDS011;9776;50.798;6.430;2024-01-16T04:15:26;9.73;;;4.40;;
19285;SDS011;9776;50.798;6.430;2024-01-16T04:17:53;8.33;;;4.57;;
19285;SDS011;9776;50.798;6.430;2024-01-16T04:20:20;10.63;;;4.47;;
19285;SDS011;9776;50.798;6.430;2024-01-16T04:22:47;8.33;;;4.50;;
19285;SDS011;9776;50.798;6.430;2024-01-16T04:25:15;10.97;;;4.47;;
19285;SDS011;9776;50.798;6.430;2024-01-16T04:27:41;10.47;;;4.17;;
19285;SDS011;9776;50.798;6.430;2024-01-16T04:30:08;9.50;;;4.37;;
19285;SDS011;9776;50.798;6.430;2024-01-16T04:32:35;9.33;;;4.60;;
19285;SDS011;9776;50.798;6.430;2024-01-16T04:35:02;9.30;;;3.90;;
19285;SDS011;9776;50.798;6.430;2024-01-16T04:37:29;12.20;;;4.53;;
19285;SDS011;9776;50.798;6.430;2024-01-16T04:39:56;7.77;;;4.13;;
19285;SDS011;9776;50.798;6.430;2024-01-16T04:42:25;10.37;;;4.03;;
19285;SDS011;9776;50.798;6.430;2024-01-16T04:44:52;8.57;;;4.33;;
19285;SDS011;9776;50.798;6.430;2024-01-16T04:47:19;10.27;;;4.47;;
19285;SDS011;9776;50.798;6.430;2024-01-16T04:49:46;12.27;;;4.87;;
19285;SDS011;9776;50.798;6.430;2024-01-16T04:52:12;11.57;;;4.53;;
19285;SDS011;9776;50.798;6.430;2024-01-16T04:54:39;9.50;;;4.10;;
19285;SDS011;9776;50.798;6.430;2024-01-16T04:57:06;8.23;;;4.30;;
19285;SDS011;9776;50.798;6.430;2024-01-16T04:59:34;10.03;;;4.50;;
19285;SDS011;9776;50.798;6.430;2024-01-16T05:02:00;9.03;;;4.27;;
19285;SDS011;9776;50.798;6.430;2024-01-16T05:04:27;8.13;;;3.97;;
19285;SDS011;9776;50.798;6.430;2024-01-16T05:06:54;9.83;;;4.30;;
19285;SDS011;9776;50.798;6.430;2024-01-16T05:09:20;12.90;;;4.20;;
19285;SDS011;9776;50.798;6.430;2024-01-16T05:11:47;7.63;;;3.67;;
19285;SDS011;9776;50.798;6.430;2024-01-16T05:14:14;11.07;;;3.57;;
19285;SDS011;9776;50.798;6.430;2024-01-16T05:16:42;9.23;;;3.87;;
19285;SDS011;9776;50.798;6.430;2024-01-16T05:19:09;9.97;;;3.83;;
19285;SDS011;9776;50.798;6.430;2024-01-16T05:21:36;12.97;;;3.57;;
19285;SDS011;9776;50.798;6.430;2024-01-16T05:24:03;8.73;;;3.57;;
19285;SDS011;9776;50.798;6.430;2024-01-16T05:26:30;14.97;;;4.07;;
19285;SDS011;9776;50.798;6.430;2024-01-16T05:28:57;11.63;;;4.00;;
19285;SDS011;9776;50.798;6.430;2024-01-16T05:31:23;11.03;;;3.50;;
19285;SDS011;9776;50.798;6.430;2024-01-16T05:33:51;7.97;;;3.47;;
19285;SDS011;9776;50.798;6.430;2024-01-16T05:36:18;12.40;;;3.87;;
19285;SDS011;9776;50.798;6.430;2024-01-16T05:38:45;9.40;;;3.97;;
19285;SDS011;9776;50.798;6.430;2024-01-16T05:41:12;9.17;;;3.80;;
19285;SDS011;9776;50.798;6.430;2024-01-16T05:43:40;8.17;;;3.23;;
19285;SDS011;9776;50.798;6.430;2024-01-16T05:46:06;8.53;;;3.30;;
19285;SDS011;9776;50.798;6.430;2024-01-16T05:48:33;10.97;;;3.27;;
19285;SDS011;9776;50.798;6.430;2024-01-16T05:51:01;8.87;;;3.47;;
19285;SDS011;9776;50.798;6.430;2024-01-16T05:53:29;9.40;;;3.53;;
19285;SDS011;9776;50.798;6.430;2024-01-16T05:55:56;10.83;;;3.43;;
19285;SDS011;9776;50.798;6.430;2024-01-16T05:58:23;6.07;;;2.70;;
19285;SDS011;9776;50.798;6.430;2024-01-16T06:00:49;9.37;;;3.30;;
19285;SDS011;9776;50.798;6.430;2024-01-16T06:03:16;8.53;;;2.67;;
19285;SDS011;9776;50.798;6.430;2024-01-16T06:05:42;7.57;;;3.10;;
19285;SDS011;9776;50.798;6.430;2024-01-16T06:08:10;7.87;;;3.30;;
19285;SDS011;9776;50.798;6.430;2024-01-16T06:10:37;10.07;;;3.37;;
19285;SDS011;9776;50.798;6.430;2024-01-16T06:13:04;7.80;;;3.03;;
19285;SDS011;9776;50.798;6.430;2024-01-16T06:15:30;10.37;;;4.60;;
19285;SDS011;9776;50.798;6.430;2024-01-16T06:17:58;20.23;;;7.87;;
19285;SDS011;9776;50.798;6.430;2024-01-16T06:20:25;20.40;;;5.57;;
19285;SDS011;9776;50.798;6.430;2024-01-16T06:22:53;8.17;;;4.40;;
19285;SDS011;9776;50.798;6.430;2024-01-16T06:25:21;7.70;;;4.63;;
19285;SDS011;9776;50.798;6.430;2024-01-16T06:27:48;12.63;;;4.40;;
19285;SDS011;9776;50.798;6.430;2024-01-16T06:30:15;10.17;;;3.47;;
19285;SDS011;9776;50.798;6.430;2024-01-16T06:32:41;8.60;;;2.57;;
19285;SDS011;9776;50.798;6.430;2024-01-16T06:35:08;6.13;;;2.70;;
19285;SDS011;9776;50.798;6.430;2024-01-16T06:37:36;8.73;;;3.20;;
19285;SDS011;9776;50.798;6.430;2024-01-16T06:40:03;8.13;;;3.03;;
19285;SDS011;9776;50.798;6.430;2024-01-16T06:42:31;5.77;;;3.03;;
19285;SDS011;9776;50.798;6.430;2024-01-16T06:44:58;6.70;;;2.60;;
19285;SDS011;9776;50.798;6.430;2024-01-16T06:47:25;9.90;;;4.67;;
19285;SDS011;9776;50.798;6.430;2024-01-16T06:49:52;9.60;;;2.70;;
19285;SDS011;9776;50.798;6.430;2024-01-16T06:52:18;7.43;;;2.50;;
19285;SDS011;9776;50.798;6.430;2024-01-16T06:54:45;8.53;;;2.60;;
19285;SDS011;9776;50.798;6.430;2024-01-16T06:57:12;6.77;;;2.70;;
19285;SDS011;9776;50.798;6.430;2024-01-16T06:59:40;7.67;;;2.53;;
19285;SDS011;9776;50.798;6.430;2024-01-16T07:02:07;5.70;;;2.80;;
19285;SDS011;9776;50.798;6.430;2024-01-16T07:04:34;8.00;;;3.03;;
19285;SDS011;9776;50.798;6.430;2024-01-16T07:07:00;10.90;;;3.63;;
19285;SDS011;9776;50.798;6.430;2024-01-16T07:09:28;15.93;;;5.87;;
19285;SDS011;9776;50.798;6.430;2024-01-16T07:11:54;19.23;;;6.33;;
19285;SDS011;9776;50.798;6.430;2024-01-16T07:14:21;12.73;;;3.93;;
19285;SDS011;9776;50.798;6.430;2024-01-16T07:16:49;8.70;;;3.70;;
19285;SDS011;9776;50.798;6.430;2024-01-16T07:19:16;7.10;;;3.17;;
19285;SDS011;9776;50.798;6.430;2024-01-16T07:21:42;7.47;;;2.77;;
19285;SDS011;9776;50.798;6.430;2024-01-16T07:24:09;5.43;;;2.63;;
19285;SDS011;9776;50.798;6.430;2024-01-16T07:26:37;5.57;;;3.13;;
19285;SDS011;9776;50.798;6.430;2024-01-16T07:29:04;6.37;;;2.60;;
19285;SDS011;9776;50.798;6.430;2024-01-16T07:31:30;7.20;;;2.80;;
19285;SDS011;9776;50.798;6.430;2024-01-16T07:33:58;4.73;;;2.90;;
19285;SDS011;9776;50.798;6.430;2024-01-16T07:36:25;4.47;;;2.10;;
19285;SDS011;9776;50.798;6.430;2024-01-16T07:38:52;5.57;;;2.27;;
19285;SDS011;9776;50.798;6.430;2024-01-16T07:41:19;5.93;;;2.10;;
19285;SDS011;9776;50.798;6.430;2024-01-16T07:43:45;5.53;;;2.03;;
19285;SDS011;9776;50.798;6.430;2024-01-16T07:46:12;6.40;;;2.40;;
19285;SDS011;9776;50.798;6.430;2024-01-16T07:48:39;4.07;;;2.10;;
19285;SDS011;9776;50.798;6.430;2024-01-16T07:51:07;9.33;;;2.60;;
19285;SDS011;9776;50.798;6.430;2024-01-16T07:53:34;8.60;;;3.13;;
19285;SDS011;9776;50.798;6.430;2024-01-16T07:56:00;6.50;;;2.70;;
19285;SDS011;9776;50.798;6.430;2024-01-16T07:58:27;6.83;;;2.83;;
19285;SDS011;9776;50.798;6.430;2024-01-16T08:00:54;7.57;;;2.60;;
19285;SDS011;9776;50.798;6.430;2024-01-16T08:03:21;3.90;;;2.17;;
19285;SDS011;9776;50.798;6.430;2024-01-16T08:05:47;4.13;;;2.10;;
19285;SDS011;9776;50.798;6.430;2024-01-16T08:08:15;7.60;;;2.50;;
19285;SDS011;9776;50.798;6.430;2024-01-16T08:10:42;6.50;;;2.10;;
19285;SDS011;9776;50.798;6.430;2024-01-16T08:13:09;6.47;;;2.20;;
19285;SDS011;9776;50.798;6.430;2024-01-16T08:15:36;6.43;;;2.30;;
19285;SDS011;9776;50.798;6.430;2024-01-16T08:18:03;6.53;;;2.27;;
19285;SDS011;9776;50.798;6.430;2024-01-16T08:20:30;6.83;;;2.07;;
19285;SDS011;9776;50.798;6.430;2024-01-16T08:22:56;4.70;;;2.17;;
19285;SDS011;9776;50.798;6.430;2024-01-16T08:25:25;4.07;;;1.87;;
19285;SDS011;9776;50.798;6.430;2024-01-16T08:27:51;9.30;;;1.90;;
19285;SDS011;9776;50.798;6.430;2024-01-16T08:30:18;4.10;;;1.90;;
19285;SDS011;9776;50.798;6.430;2024-01-16T08:32:45;3.53;;;1.77;;
19285;SDS011;9776;50.798;6.430;2024-01-16T08:35:11;7.80;;;2.30;;
19285;SDS011;9776;50.798;6.430;2024-01-16T08:37:38;5.80;;;1.80;;
19285;SDS011;9776;50.798;6.430;2024-01-16T08:40:06;3.67;;;2.03;;
19285;SDS011;9776;50.798;6.430;2024-01-16T08:42:35;4.73;;;1.60;;
19285;SDS011;9776;50.798;6.430;2024-01-16T08:45:02;6.80;;;1.90;;
19285;SDS011;9776;50.798;6.430;2024-01-16T08:47:30;4.37;;;1.90;;
19285;SDS011;9776;50.798;6.430;2024-01-16T08:49:57;7.03;;;1.80;;
19285;SDS011;9776;50.798;6.430;2024-01-16T08:52:23;5.10;;;1.70;;
19285;SDS011;9776;50.798;6.430;2024-01-16T08:54:50;8.40;;;2.20;;
19285;SDS011;9776;50.798;6.430;2024-01-16T08:57:17;5.87;;;1.90;;
19285;SDS011;9776;50.798;6.430;2024-01-16T08:59:45;6.17;;;2.00;;
19285;SDS011;9776;50.798;6.430;2024-01-16T09:02:12;3.33;;;1.70;;
19285;SDS011;9776;50.798;6.430;2024-01-16T09:04:39;5.67;;;2.43;;
19285;SDS011;9776;50.798;6.430;2024-01-16T09:07:06;8.63;;;2.30;;
19285;SDS011;9776;50.798;6.430;2024-01-16T09:09:33;6.83;;;2.73;;
19285;SDS011;9776;50.798;6.430;2024-01-16T09:12:00;8.43;;;2.20;;
19285;SDS011;9776;50.798;6.430;2024-01-16T09:14:26;6.13;;;2.33;;
19285;SDS011;9776;50.798;6.430;2024-01-16T09:16:54;11.10;;;3.10;;
19285;SDS011;9776;50.798;6.430;2024-01-16T09:19:21;12.43;;;3.30;;
19285;SDS011;9776;50.798;6.430;2024-01-16T09:21:48;7.83;;;2.83;;
19285;SDS011;9776;50.798;6.430;2024-01-16T09:24:15;5.00;;;2.00;;
19285;SDS011;9776;50.798;6.430;2024-01-16T09:26:41;6.90;;;2.47;;
19285;SDS011;9776;50.798;6.430;2024-01-16T09:29:08;7.90;;;2.27;;
19285;SDS011;9776;50.798;6.430;2024-01-16T09:31:35;6.73;;;1.70;;
19285;SDS011;9776;50.798;6.430;2024-01-16T09:34:04;4.37;;;2.17;;
19285;SDS011;9776;50.798;6.430;2024-01-16T09:36:30;4.80;;;2.10;;
19285;SDS011;9776;50.798;6.430;2024-01-16T09:38:57;4.53;;;1.83;;
19285;SDS011;9776;50.798;6.430;2024-01-16T09:41:24;7.97;;;2.37;;
19285;SDS011;9776;50.798;6.430;2024-01-16T09:43:51;6.93;;;1.90;;
19285;SDS011;9776;50.798;6.430;2024-01-16T09:46:17;7.13;;;2.30;;
19285;SDS011;9776;50.798;6.430;2024-01-16T09:48:49;7.73;;;2.50;;
19285;SDS011;9776;50.798;6.430;2024-01-16T09:51:20;6.83;;;2.30;;
19285;SDS011;9776;50.798;6.430;2024-01-16T09:53:47;3.83;;;2.10;;
19285;SDS011;9776;50.798;6.430;2024-01-16T09:56:14;5.03;;;2.30;;
19285;SDS011;9776;50.798;6.430;2024-01-16T09:58:42;8.30;;;2.43;;
19285;SDS011;9776;50.798;6.430;2024-01-16T10:01:10;6.57;;;2.20;;
19285;SDS011;9776;50.798;6.430;2024-01-16T10:03:38;7.90;;;3.07;;
19285;SDS011;9776;50.798;6.430;2024-01-16T10:06:06;7.57;;;2.33;;
19285;SDS011;9776;50.798;6.430;2024-01-16T10:08:35;6.17;;;3.07;;
19285;SDS011;9776;50.798;6.430;2024-01-16T10:11:03;8.20;;;2.33;;
19285;SDS011;9776;50.798;6.430;2024-01-16T10:13:30;8.60;;;2.40;;
19285;SDS011;9776;50.798;6.430;2024-01-16T10:15:58;6.47;;;2.35;;
19285;SDS011;9776;50.798;6.430;2024-01-16T10:18:26;7.03;;;2.30;;
19285;SDS011;9776;50.798;6.430;2024-01-16T10:20:54;6.35;;;2.83;;
19285;SDS011;9776;50.798;6.430;2024-01-16T10:23:22;6.00;;;2.50;;
19285;SDS011;9776;50.798;6.430;2024-01-16T10:26:00;5.15;;;2.70;;
19285;SDS011;9776;50.798;6.430;2024-01-16T10:28:31;5.70;;;2.35;;
19285;SDS011;9776;50.798;6.430;2024-01-16T10:31:01;4.65;;;2.25;;
19285;SDS011;9776;50.798;6.430;2024-01-16T10:33:28;5.10;;;2.22;;
19285;SDS011;9776;50.798;6.430;2024-01-16T10:36:04;9.52;;;2.58;;
19285;SDS011;9776;50.798;6.430;2024-01-16T10:38:34;6.93;;;2.28;;
19285;SDS011;9776;50.798;6.430;2024-01-16T10:41:11;7.63;;;2.33;;
19285;SDS011;9776;50.798;6.430;2024-01-16T10:43:39;6.30;;;3.05;;
19285;SDS011;9776;50.798;6.430;2024-01-16T10:46:06;3.65;;;2.28;;
19285;SDS011;9776;50.798;6.430;2024-01-16T10:48:37;9.98;;;2.00;;
19285;SDS011;9776;50.798;6.430;2024-01-16T10:51:05;4.55;;;2.30;;
19285;SDS011;9776;50.798;6.430;2024-01-16T10:53:33;4.95;;;2.28;;
19285;SDS011;9776;50.798;6.430;2024-01-16T10:56:01;5.20;;;2.30;;
19285;SDS011;9776;50.798;6.430;2024-01-16T10:58:30;4.60;;;2.03;;
19285;SDS011;9776;50.798;6.430;2024-01-16T11:01:00;5.30;;;2.30;;
19285;SDS011;9776;50.798;6.430;2024-01-16T11:03:29;3.38;;;1.90;;
19285;SDS011;9776;50.798;6.430;2024-01-16T11:06:02;5.22;;;2.05;;
19285;SDS011;9776;50.798;6.430;2024-01-16T11:08:32;5.78;;;2.65;;
19285;SDS011;9776;50.798;6.430;2024-01-16T11:11:01;6.82;;;2.70;;
19285;SDS011;9776;50.798;6.430;2024-01-16T11:13:31;5.35;;;3.10;;
19285;SDS011;9776;50.798;6.430;2024-01-16T11:15:59;5.43;;;2.78;;
19285;SDS011;9776;50.798;6.430;2024-01-16T11:18:26;6.68;;;2.78;;
19285;SDS011;9776;50.798;6.430;2024-01-16T11:20:56;8.18;;;3.03;;
19285;SDS011;9776;50.798;6.430;2024-01-16T11:23:24;5.15;;;2.45;;
19285;SDS011;9776;50.798;6.430;2024-01-16T11:25:51;4.97;;;2.63;;
19285;SDS011;9776;50.798;6.430;2024-01-16T11:28:17;7.57;;;2.60;;
19285;SDS011;9776;50.798;6.430;2024-01-16T11:30:46;4.93;;;2.22;;
19285;SDS011;9776;50.798;6.430;2024-01-16T11:39:17;5.22;;;2.95;;
19285;SDS011;9776;50.798;6.430;2024-01-16T11:41:48;7.93;;;2.78;;
19285;SDS011;9776;50.798;6.430;2024-01-16T11:47:20;6.70;;;2.70;;
19285;SDS011;9776;50.798;6.430;2024-01-16T11:49:49;5.65;;;2.92;;
19285;SDS011;9776;50.798;6.430;2024-01-16T11:52:38;7.82;;;3.13;;
19285;SDS011;9776;50.798;6.430;2024-01-16T11:57:54;6.32;;;3.00;;
19285;SDS011;9776;50.798;6.430;2024-01-16T12:00:40;5.93;;;3.10;;
19285;SDS011;9776;50.798;6.430;2024-01-16T12:03:08;6.70;;;3.38;;
19285;SDS011;9776;50.798;6.430;2024-01-16T12:05:37;7.65;;;3.83;;
19285;SDS011;9776;50.798;6.430;2024-01-16T12:08:04;7.80;;;3.50;;
19285;SDS011;9776;50.798;6.430;2024-01-16T12:10:31;10.27;;;4.70;;
19285;SDS011;9776;50.798;6.430;2024-01-16T12:12:59;7.30;;;3.33;;
19285;SDS011;9776;50.798;6.430;2024-01-16T12:15:27;10.23;;;5.65;;
19285;SDS011;9776;50.798;6.430;2024-01-16T12:17:54;17.27;;;6.45;;
19285;SDS011;9776;50.798;6.430;2024-01-16T12:20:24;11.75;;;4.90;;
19285;SDS011;9776;50.798;6.430;2024-01-16T12:22:56;12.40;;;5.65;;
19285;SDS011;9776;50.798;6.430;2024-01-16T12:25:25;13.88;;;5.85;;
19285;SDS011;9776;50.798;6.430;2024-01-16T12:27:55;11.30;;;4.55;;
19285;SDS011;9776;50.798;6.430;2024-01-16T12:30:23;22.80;;;8.15;;
19285;SDS011;9776;50.798;6.430;2024-01-16T12:32:53;15.25;;;6.32;;
19285;SDS011;9776;50.798;6.430;2024-01-16T12:35:30;29.77;;;9.45;;
19285;SDS011;9776;50.798;6.430;2024-01-16T12:37:57;7.72;;;4.50;;
19285;SDS011;9776;50.798;6.430;2024-01-16T12:40:25;7.38;;;4.00;;
19285;SDS011;9776;50.798;6.430;2024-01-16T12:42:52;8.07;;;3.90;;
19285;SDS011;9776;50.798;6.430;2024-01-16T12:45:19;7.78;;;3.97;;
19285;SDS011;9776;50.798;6.430;2024-01-16T12:47:49;9.70;;;4.10;;
19285;SDS011;9776;50.798;6.430;2024-01-16T12:50:18;7.00;;;3.95;;
19285;SDS011;9776;50.798;6.430;2024-01-16T12:52:47;7.47;;;3.65;;
19285;SDS011;9776;50.798;6.430;2024-01-16T12:55:15;6.75;;;3.60;;
19285;SDS011;9776;50.798;6.430;2024-01-16T12:57:42;8.38;;;3.65;;
19285;SDS011;9776;50.798;6.430;2024-01-16T13:00:22;6.57;;;3.47;;
19285;SDS011;9776;50.798;6.430;2024-01-16T13:02:50;7.93;;;3.78;;
19285;SDS011;9776;50.798;6.430;2024-01-16T13:05:17;11.93;;;3.65;;
19285;SDS011;9776;50.798;6.430;2024-01-16T13:08:00;7.78;;;3.92;;
19285;SDS011;9776;50.798;6.430;2024-01-16T13:10:28;10.40;;;3.60;;
19285;SDS011;9776;50.798;6.430;2024-01-16T13:13:10;8.52;;;3.85;;
19285;SDS011;9776;50.798;6.430;2024-01-16T13:15:38;7.07;;;3.90;;
19285;SDS011;9776;50.798;6.430;2024-01-16T13:18:05;7.75;;;3.47;;
19285;SDS011;9776;50.798;6.430;2024-01-16T13:20:32;10.60;;;4.00;;
19285;SDS011;9776;50.798;6.430;2024-01-16T13:23:00;7.00;;;3.28;;
19285;SDS011;9776;50.798;6.430;2024-01-16T13:25:28;61.85;;;30.35;;
19285;SDS011;9776;50.798;6.430;2024-01-16T13:27:55;90.53;;;36.08;;
19285;SDS011;9776;50.798;6.430;2024-01-16T13:30:21;65.38;;;32.85;;
19285;SDS011;9776;50.798;6.430;2024-01-16T13:32:49;16.35;;;10.73;;
19285;SDS011;9776;50.798;6.430;2024-01-16T13:35:15;8.85;;;5.15;;
19285;SDS011;9776;50.798;6.430;2024-01-16T13:37:42;7.32;;;3.85;;
19285;SDS011;9776;50.798;6.430;2024-01-16T13:40:10;10.05;;;4.72;;
19285;SDS011;9776;50.798;6.430;2024-01-16T13:42:40;8.00;;;4.00;;
19285;SDS011;9776;50.798;6.430;2024-01-16T13:45:07;14.32;;;8.02;;
19285;SDS011;9776;50.798;6.430;2024-01-16T13:47:34;20.33;;;10.27;;
19285;SDS011;9776;50.798;6.430;2024-01-16T13:50:04;16.58;;;10.50;;
19285;SDS011;9776;50.798;6.430;2024-01-16T13:52:31;8.63;;;4.30;;
19285;SDS011;9776;50.798;6.430;2024-01-16T13:54:58;9.32;;;6.22;;
19285;SDS011;9776;50.798;6.430;2024-01-16T13:57:29;10.75;;;6.97;;
19285;SDS011;9776;50.798;6.430;2024-01-16T13:59:55;11.02;;;7.05;;
19285;SDS011;9776;50.798;6.430;2024-01-16T14:02:22;7.18;;;3.88;;
19285;SDS011;9776;50.798;6.430;2024-01-16T14:04:49;8.30;;;4.20;;
19285;SDS011;9776;50.798;6.430;2024-01-16T14:07:16;6.88;;;3.90;;
19285;SDS011;9776;50.798;6.430;2024-01-16T14:09:43;8.52;;;5.80;;
19285;SDS011;9776;50.798;6.430;2024-01-16T14:12:09;9.32;;;5.50;;
19285;SDS011;9776;50.798;6.430;2024-01-16T14:14:38;11.02;;;6.38;;
19285;SDS011;9776;50.798;6.430;2024-01-16T14:17:06;13.27;;;8.45;;
19285;SDS011;9776;50.798;6.430;2024-01-16T14:19:34;36.47;;;23.48;;
19285;SDS011;9776;50.798;6.430;2024-01-16T14:22:01;7.05;;;4.93;;
19285;SDS011;9776;50.798;6.430;2024-01-16T14:24:28;36.13;;;22.98;;
19285;SDS011;9776;50.798;6.430;2024-01-16T14:26:55;8.82;;;4.78;;
19285;SDS011;9776;50.798;6.430;2024-01-16T14:29:22;11.57;;;7.65;;
19285;SDS011;9776;50.798;6.430;2024-01-16T14:31:50;9.55;;;4.80;;
19285;SDS011;9776;50.798;6.430;2024-01-16T14:34:17;10.93;;;5.10;;
19285;SDS011;9776;50.798;6.430;2024-01-16T14:36:45;13.15;;;5.47;;
19285;SDS011;9776;50.798;6.430;2024-01-16T14:39:12;8.10;;;3.83;;
19285;SDS011;9776;50.798;6.430;2024-01-16T14:41:42;11.80;;;6.70;;
19285;SDS011;9776;50.798;6.430;2024-01-16T14:44:09;8.50;;;5.85;;
19285;SDS011;9776;50.798;6.430;2024-01-16T14:46:36;16.15;;;9.60;;
19285;SDS011;9776;50.798;6.430;2024-01-16T14:49:04;13.07;;;6.60;;
19285;SDS011;9776;50.798;6.430;2024-01-16T14:51:31;9.57;;;5.50;;
19285;SDS011;9776;50.798;6.430;2024-01-16T14:53:57;8.65;;;3.75;;
19285;SDS011;9776;50.798;6.430;2024-01-16T14:56:26;6.88;;;3.88;;
19285;SDS011;9776;50.798;6.430;2024-01-16T14:58:56;6.20;;;3.50;;
19285;SDS011;9776;50.798;6.430;2024-01-16T15:01:23;8.85;;;5.72;;
19285;SDS011;9776;50.798;6.430;2024-01-16T15:03:49;8.20;;;4.72;;
19285;SDS011;9776;50.798;6.430;2024-01-16T15:06:17;7.10;;;5.68;;
19285;SDS011;9776;50.798;6.430;2024-01-16T15:08:44;10.27;;;4.93;;
19285;SDS011;9776;50.798;6.430;2024-01-16T15:11:13;10.23;;;4.30;;